Terminal Aerodrome Forecast
Issued by NWS

Home | Current Version | Previous Version | Text Only | Print | Product List | Glossary On
Versions: 1 2 3 4 5 6 7 8 9 10 11 12 13 14 15 16 17 18 19 20 21 22 23 24
000
FTUS45 KREV 261129
TAFCXP
TAF
KCXP 261129Z 2612/2712 19006KT P6SM SCT040 BKN060
     FM261600 26012G24KT P6SM SCT030 BKN060
     FM262000 26020G32KT P6SM SCT040 BKN080
     FM270200 29011G20KT P6SM SCT040 BKN090
     FM270500 27007KT P6SM SCT100 BKN200=

USA.gov is the U.S. government's official web portal to all federal, state and local government web resources and services.